Time;durP1;ratioP1;P1;durP2;ratioP2;P2;SDS_P1;SDS_P2;PMS_P1;PMS_P2;Temp;Humidity;BMP_temperature;BMP_pressure;BME280_temperature;BME280_humidity;BME280_pressure;Samples;Min_cycle;Max_cycle;Signal;HPM_P1;HPM_P2
2023/07/11 00:01:31;;;;;;;5.15;3.40;;;;;;;29.03;41.44;100254.97;5093788;28;20059;-77
2023/07/11 00:03:59;;;;;;;5.65;3.78;;;;;;;29.02;41.27;100259.63;5093234;28;20048;-77
2023/07/11 00:06:28;;;;;;;4.78;3.53;;;;;;;29.01;40.99;100251.63;5093340;28;20052;-77
2023/07/11 00:08:56;;;;;;;4.45;3.35;;;;;;;29.02;41.08;100256.03;5093009;28;20056;-76
2023/07/11 00:11:26;;;;;;;4.88;3.13;;;;;;;28.98;41.64;100238.31;5093264;28;20117;-77
2023/07/11 00:13:55;;;;;;;5.28;3.20;;;;;;;28.98;41.10;100246.56;5093091;28;20070;-78
2023/07/11 00:16:24;;;;;;;4.95;3.38;;;;;;;28.96;41.42;100255.00;5092935;28;20052;-78
2023/07/11 00:18:52;;;;;;;5.70;3.53;;;;;;;28.96;41.09;100255.00;5093395;28;20044;-77
2023/07/11 00:21:20;;;;;;;6.43;3.40;;;;;;;28.95;41.54;100253.31;5093070;28;20059;-78
2023/07/11 00:23:48;;;;;;;5.07;3.78;;;;;;;28.92;41.17;100253.72;5092823;28;20052;-78
2023/07/11 00:26:17;;;;;;;4.68;3.30;;;;;;;28.92;41.22;100250.97;5092801;28;20121;-76
2023/07/11 00:28:46;;;;;;;5.13;3.58;;;;;;;28.92;41.29;100247.38;5092852;28;20051;-78
2023/07/11 00:31:14;;;;;;;4.55;3.20;;;;;;;28.90;41.64;100244.88;5093197;28;20064;-78
2023/07/11 00:33:46;;;;;;;5.00;3.30;;;;;;;28.89;41.77;100243.19;5093082;28;20101;-75
2023/07/11 00:36:14;;;;;;;4.97;3.50;;;;;;;28.89;41.64;100243.19;5091979;28;20507;-78
2023/07/11 00:38:42;;;;;;;5.55;3.45;;;;;;;28.88;41.57;100237.88;5092635;28;20570;-78
2023/07/11 00:41:10;;;;;;;5.00;3.30;;;;;;;28.86;41.54;100240.84;5092693;28;20043;-78
2023/07/11 00:43:38;;;;;;;4.47;3.30;;;;;;;28.87;41.26;100233.44;5092452;28;20489;-78
2023/07/11 00:46:13;;;;;;;5.25;3.60;;;;;;;28.86;41.64;100238.09;5092786;28;20040;-78
2023/07/11 00:48:45;;;;;;;6.38;3.47;;;;;;;28.85;41.74;100239.13;5092409;28;20076;-78
2023/07/11 00:51:18;;;;;;;5.18;3.55;;;;;;;28.85;41.21;100238.28;5092458;28;20093;-78
2023/07/11 00:53:46;;;;;;;;;;;;;;;28.83;41.39;100238.50;5092857;28;20119;-78
2023/07/11 00:56:21;;;;;;;5.13;3.53;;;;;;;28.83;41.83;100243.13;5092075;28;19920;-78
2023/07/11 00:58:50;;;;;;;5.72;3.42;;;;;;;28.81;41.44;100232.38;5092380;28;20078;-78
2023/07/11 01:01:21;;;;;;;5.28;3.65;;;;;;;28.81;41.72;100235.13;5092182;28;20048;-77
2023/07/11 01:03:50;;;;;;;5.22;3.20;;;;;;;28.80;41.38;100227.94;5092205;28;20040;-77
2023/07/11 01:06:22;;;;;;;4.65;3.38;;;;;;;28.77;41.73;100222.88;5092084;28;20116;-77
2023/07/11 01:08:53;;;;;;;5.40;3.17;;;;;;;28.77;41.63;100222.88;5091931;28;20055;-78
2023/07/11 01:11:24;;;;;;;5.68;3.35;;;;;;;28.77;41.81;100231.97;5092155;28;20058;-76
2023/07/11 01:13:53;;;;;;;4.82;3.65;;;;;;;28.76;41.65;100222.03;5092821;28;20390;-76
2023/07/11 01:16:23;;;;;;;5.70;3.50;;;;;;;28.75;41.56;100225.81;5092763;28;20058;-76
2023/07/11 01:18:51;;;;;;;5.20;3.50;;;;;;;28.74;41.45;100228.78;5092593;28;20044;-76
2023/07/11 01:21:21;;;;;;;5.72;3.67;;;;;;;28.73;41.78;100229.84;5092491;28;20083;-77
2023/07/11 01:23:50;;;;;;;4.88;3.60;;;;;;;28.72;41.48;100230.91;5092391;28;20463;-77
2023/07/11 01:26:18;;;;;;;5.18;3.72;;;;;;;28.71;41.38;100220.97;5091857;28;20142;-77
2023/07/11 01:28:47;;;;;;;6.05;3.20;;;;;;;28.70;41.42;100222.03;5091892;28;20048;-77
2023/07/11 01:31:15;;;;;;;4.80;3.55;;;;;;;28.70;41.65;100216.53;5091760;28;20067;-77
2023/07/11 01:33:43;;;;;;;5.10;3.50;;;;;;;28.69;41.61;100220.34;5091526;28;20151;-77
2023/07/11 01:36:14;;;;;;;4.38;3.20;;;;;;;28.68;41.40;100213.19;5091564;28;20070;-77
2023/07/11 01:38:44;;;;;;;5.85;3.22;;;;;;;28.67;41.57;100215.06;5091999;28;20488;-77
2023/07/11 01:41:12;;;;;;;5.72;3.50;;;;;;;28.66;41.73;100213.38;5091628;28;20055;-77
2023/07/11 01:43:40;;;;;;;4.95;3.30;;;;;;;28.65;41.46;100205.34;5091443;28;20048;-76
2023/07/11 01:46:08;;;;;;;5.93;3.50;;;;;;;28.64;41.82;100201.75;5091298;28;20090;-76
2023/07/11 01:48:37;;;;;;;5.00;3.50;;;;;;;28.63;41.48;100207.47;5091181;28;20127;-76
2023/07/11 01:51:05;;;;;;;4.43;3.33;;;;;;;28.62;41.79;100203.03;5091502;28;20044;-77
2023/07/11 01:53:34;;;;;;;5.22;3.60;;;;;;;28.62;41.51;100200.28;5091511;28;20048;-76
2023/07/11 01:56:05;;;;;;;4.53;3.40;;;;;;;28.61;41.97;100204.09;5091260;28;20040;-74
2023/07/11 01:58:34;;;;;;;4.47;3.22;;;;;;;28.60;41.85;100205.16;5091345;28;20044;-77
2023/07/11 02:01:02;;;;;;;5.13;3.28;;;;;;;28.58;41.65;100190.81;5091278;28;20489;-76
2023/07/11 02:03:31;;;;;;;4.50;3.20;;;;;;;28.51;41.69;100180.66;5091505;28;20054;-77
2023/07/11 02:05:59;;;;;;;4.47;3.05;;;;;;;28.58;41.67;100190.81;5091288;28;20052;-77
2023/07/11 02:08:27;;;;;;;5.88;3.28;;;;;;;28.56;41.72;100190.13;5091313;28;20101;-77
2023/07/11 02:10:56;;;;;;;5.38;3.30;;;;;;;28.54;41.75;100187.63;5091274;28;20400;-76
2023/07/11 02:13:25;;;;;;;4.40;3.28;;;;;;;28.55;41.61;100191.19;5091259;28;20048;-76
2023/07/11 02:15:53;;;;;;;4.70;3.10;;;;;;;28.53;41.70;100194.16;5091426;28;20048;-77
2023/07/11 02:18:22;;;;;;;4.70;3.10;;;;;;;28.52;41.84;100193.31;5091015;28;20095;-76
2023/07/11 02:20:51;;;;;;;4.70;3.00;;;;;;;28.53;42.06;100199.66;5091228;28;20055;-78
2023/07/11 02:23:19;;;;;;;5.53;3.45;;;;;;;28.51;41.65;100191.63;5091102;28;20105;-78
2023/07/11 02:25:47;;;;;;;5.15;3.22;;;;;;;28.50;42.03;100189.09;5091066;28;20052;-77
2023/07/11 02:28:15;;;;;;;5.00;3.15;;;;;;;28.50;41.94;100191.84;5091066;28;20425;-78
2023/07/11 02:30:45;;;;;;;5.40;3.20;;;;;;;28.50;41.89;100195.44;5091114;28;20040;-77
2023/07/11 02:33:13;;;;;;;5.38;3.47;;;;;;;28.49;41.75;100188.25;5091038;28;20078;-78
2023/07/11 02:35:41;;;;;;;4.88;3.30;;;;;;;28.47;42.16;100189.50;5091063;28;20051;-78
2023/07/11 02:38:10;;;;;;;4.65;3.03;;;;;;;28.47;41.91;100195.88;5090836;28;20709;-76
2023/07/11 02:40:38;;;;;;;4.55;3.17;;;;;;;28.46;41.78;100191.41;5090840;28;20080;-78
2023/07/11 02:43:06;;;;;;;5.25;3.60;;;;;;;28.46;42.16;100185.06;5091219;28;20045;-77
2023/07/11 02:45:34;;;;;;;4.30;3.10;;;;;;;28.44;42.12;100185.28;5091207;28;20127;-77
2023/07/11 02:48:04;;;;;;;4.43;3.17;;;;;;;28.44;41.80;100190.78;5091047;28;20258;-77
2023/07/11 02:50:32;;;;;;;4.63;3.42;;;;;;;28.43;42.07;100186.34;5090983;28;20048;-78
2023/07/11 02:53:03;;;;;;;4.20;3.15;;;;;;;28.43;41.98;100189.09;5090702;28;20386;-77
2023/07/11 02:55:31;;;;;;;4.43;3.22;;;;;;;28.42;42.18;100190.16;5090974;28;20051;-76
2023/07/11 02:57:59;;;;;;;4.22;3.17;;;;;;;28.42;41.99;100186.56;5090797;28;20063;-77
2023/07/11 03:00:28;;;;;;;5.20;3.25;;;;;;;28.42;41.99;100187.41;5093648;28;20401;-77
2023/07/11 03:02:56;;;;;;;4.80;3.20;;;;;;;28.40;42.33;100184.03;5094410;28;20046;-78
2023/07/11 03:05:25;;;;;;;4.25;3.05;;;;;;;28.40;42.44;100195.00;5094181;28;20043;-78
2023/07/11 03:07:54;;;;;;;4.07;2.90;;;;;;;28.40;41.88;100183.19;5094167;28;20047;-78
2023/07/11 03:10:22;;;;;;;4.45;3.10;;;;;;;28.39;41.88;100182.34;5094076;28;20134;-78
2023/07/11 03:12:50;;;;;;;4.80;3.10;;;;;;;28.38;41.99;100185.31;5094353;28;20050;-78
2023/07/11 03:15:18;;;;;;;4.45;3.10;;;;;;;28.36;42.08;100180.00;5094177;28;20055;-78
2023/07/11 03:17:47;;;;;;;4.40;3.15;;;;;;;28.36;41.97;100192.88;5094114;28;20052;-77
2023/07/11 03:20:15;;;;;;;4.65;3.17;;;;;;;28.35;42.44;100185.69;5093997;28;20051;-78
2023/07/11 03:22:44;;;;;;;5.13;3.05;;;;;;;28.33;42.25;100177.69;5094269;28;20452;-78
2023/07/11 03:25:13;;;;;;;5.10;3.08;;;;;;;28.31;42.50;100189.94;5094126;28;20151;-78
2023/07/11 03:27:41;;;;;;;5.13;3.05;;;;;;;28.30;42.69;100194.56;5094400;28;20174;-77
2023/07/11 03:30:10;;;;;;;5.57;3.17;;;;;;;28.27;42.51;100194.94;5094147;28;20087;-78
2023/07/11 03:32:38;;;;;;;4.53;3.00;;;;;;;28.25;42.80;100191.56;5094428;28;20094;-78
2023/07/11 03:35:07;;;;;;;4.55;3.40;;;;;;;28.24;42.52;100190.72;5075942;28;20440;-77
2023/07/11 03:37:36;;;;;;;4.88;3.28;;;;;;;28.25;42.85;100191.56;5093951;28;20048;-78
2023/07/11 03:40:06;;;;;;;5.18;3.17;;;;;;;28.24;42.71;100200.84;5093833;28;20052;-77
2023/07/11 03:42:34;;;;;;;4.95;3.10;;;;;;;28.25;42.46;100202.53;5093808;28;20409;-77
2023/07/11 03:45:04;;;;;;;5.28;3.22;;;;;;;28.24;42.67;100200.84;5093671;28;20049;-78
2023/07/11 03:47:32;;;;;;;4.57;2.95;;;;;;;28.25;42.58;100205.28;5093517;28;20199;-78
2023/07/11 03:50:00;;;;;;;4.70;3.15;;;;;;;28.24;42.65;100212.66;5093702;28;20044;-78
2023/07/11 03:52:28;;;;;;;4.80;3.30;;;;;;;28.23;42.81;100216.47;5093486;28;20101;-77
2023/07/11 03:54:57;;;;;;;6.40;3.47;;;;;;;28.22;42.55;100211.19;5093464;28;20127;-78
2023/07/11 03:57:26;;;;;;;4.45;2.92;;;;;;;28.23;42.91;100221.09;5093287;28;20052;-77
2023/07/11 03:59:54;;;;;;;4.60;2.97;;;;;;;28.22;43.14;100219.41;5093207;28;20052;-77
2023/07/11 04:02:22;;;;;;;4.43;3.00;;;;;;;28.20;42.80;100205.91;5093425;28;20051;-78
2023/07/11 04:04:50;;;;;;;5.15;3.17;;;;;;;28.21;43.15;100215.84;5093369;28;20040;-77
2023/07/11 04:07:19;;;;;;;5.22;3.20;;;;;;;28.20;42.87;100221.53;5093208;28;20151;-78
2023/07/11 04:09:48;;;;;;;4.53;3.17;;;;;;;28.20;43.14;100224.28;5093104;28;20083;-78
2023/07/11 04:12:16;;;;;;;5.25;3.45;;;;;;;28.20;43.22;100218.78;5092255;28;20494;-77
2023/07/11 04:14:45;;;;;;;4.72;3.10;;;;;;;28.17;43.27;100222.75;5092899;28;20051;-77
2023/07/11 04:17:14;;;;;;;4.18;3.05;;;;;;;28.17;42.72;100222.75;5093032;28;20064;-76
2023/07/11 04:19:42;;;;;;;4.18;2.85;;;;;;;28.18;43.39;100223.59;5093229;28;20052;-77
2023/07/11 04:22:10;;;;;;;5.28;3.25;;;;;;;28.16;43.51;100225.72;5092900;28;20044;-77
2023/07/11 04:24:38;;;;;;;5.05;3.10;;;;;;;28.16;43.55;100225.72;5092697;28;20490;-77
2023/07/11 04:27:06;;;;;;;4.63;3.15;;;;;;;28.14;43.38;100228.66;5092637;28;20044;-76
2023/07/11 04:29:35;;;;;;;4.55;3.20;;;;;;;28.13;43.49;100226.16;5092529;28;20447;-77
2023/07/11 04:32:06;;;;;;;4.38;3.13;;;;;;;28.13;43.38;100220.66;5092583;28;20089;-77
2023/07/11 04:34:34;;;;;;;6.18;3.60;;;;;;;28.14;43.18;100225.09;5092873;28;20052;-77
2023/07/11 04:37:03;;;;;;;4.20;3.15;;;;;;;28.14;43.06;100228.66;5092416;28;20040;-77
2023/07/11 04:39:31;;;;;;;4.22;3.30;;;;;;;28.13;43.06;100227.00;5092247;28;20052;-77
2023/07/11 04:41:59;;;;;;;5.28;3.08;;;;;;;28.14;43.45;100227.84;5092322;28;20642;-76
2023/07/11 04:44:27;;;;;;;4.72;3.08;;;;;;;28.14;43.36;100230.56;5092537;28;20429;-78
2023/07/11 04:46:55;;;;;;;4.43;3.15;;;;;;;28.14;43.38;100219.59;5092187;28;20409;-77
2023/07/11 04:49:25;;;;;;;4.65;2.90;;;;;;;28.14;43.18;100230.56;5093154;28;20450;-77
2023/07/11 04:51:53;;;;;;;4.63;3.13;;;;;;;28.13;43.57;100224.25;5092733;28;20131;-77
2023/07/11 04:54:21;;;;;;;4.68;3.15;;;;;;;28.13;43.59;100231.63;5092104;28;20040;-77
2023/07/11 04:56:58;;;;;;;4.80;2.97;;;;;;;28.13;43.39;100231.63;5092130;28;20072;-77
2023/07/11 04:59:27;;;;;;;5.03;3.30;;;;;;;28.13;43.43;100235.22;5092141;28;20062;-77
2023/07/11 05:01:55;;;;;;;4.22;2.95;;;;;;;28.13;43.58;100237.09;5091923;28;20055;-78
2023/07/11 05:04:25;;;;;;;4.28;2.88;;;;;;;28.12;43.57;100232.69;5091977;28;20040;-77
2023/07/11 05:06:53;;;;;;;4.30;2.80;;;;;;;28.12;43.26;100229.94;5091785;28;20125;-78
2023/07/11 05:09:21;;;;;;;3.85;2.83;;;;;;;28.12;43.34;100235.44;5091724;28;20054;-78
2023/07/11 05:11:50;;;;;;;4.13;2.92;;;;;;;28.12;43.20;100240.91;5091543;28;20362;-77
2023/07/11 05:14:18;;;;;;;4.80;3.10;;;;;;;28.13;43.62;100237.09;5091805;28;20044;-77
2023/07/11 05:16:46;;;;;;;4.50;3.22;;;;;;;28.11;43.77;100237.31;5091758;28;20471;-78
2023/07/11 05:19:14;;;;;;;4.90;3.22;;;;;;;28.08;43.40;100228.66;5091626;28;20071;-78
2023/07/11 05:21:44;;;;;;;4.88;3.42;;;;;;;28.10;43.69;100237.53;5091141;28;20415;-78
2023/07/11 05:24:12;;;;;;;4.72;3.10;;;;;;;28.08;43.91;100236.88;5091553;28;20044;-77
2023/07/11 05:26:40;;;;;;;6.47;3.50;;;;;;;28.08;43.79;100234.13;5091514;28;20230;-78
2023/07/11 05:29:08;;;;;;;4.20;3.00;;;;;;;28.09;43.96;100235.84;5091597;28;20040;-77
2023/07/11 05:31:37;;;;;;;4.60;3.00;;;;;;;28.08;43.88;100239.59;5091371;28;20399;-78
2023/07/11 05:34:05;;;;;;;4.65;3.08;;;;;;;28.06;43.77;100231.59;5091158;28;20048;-77
2023/07/11 05:36:34;;;;;;;4.25;3.17;;;;;;;28.07;43.64;100241.50;5091574;28;20775;-78
2023/07/11 05:39:06;;;;;;;4.78;3.15;;;;;;;28.08;43.62;100239.59;5091141;28;20404;-78
2023/07/11 05:41:36;;;;;;;5.10;3.20;;;;;;;28.08;43.81;100245.09;5091518;28;20048;-77
2023/07/11 05:44:05;;;;;;;4.90;3.13;;;;;;;28.08;43.41;100245.09;5091220;28;20565;-78
2023/07/11 05:46:34;;;;;;;4.43;3.10;;;;;;;28.09;43.46;100246.81;5091269;28;20106;-77
2023/07/11 05:49:03;;;;;;;4.68;3.05;;;;;;;28.08;43.58;100250.59;5091082;28;20098;-78
2023/07/11 05:51:32;;;;;;;4.80;3.13;;;;;;;28.08;43.70;100250.59;5091437;28;20071;-78
2023/07/11 05:54:00;;;;;;;4.20;2.80;;;;;;;28.07;43.91;100248.88;5091400;28;20051;-77
2023/07/11 05:56:30;;;;;;;4.30;2.95;;;;;;;28.08;43.51;100256.91;5091543;28;20074;-77
2023/07/11 05:58:59;;;;;;;5.00;3.42;;;;;;;28.07;43.49;100254.38;5091168;28;20159;-77
2023/07/11 06:01:29;;;;;;;3.85;2.90;;;;;;;28.08;43.98;100256.06;5091283;28;20150;-78
2023/07/11 06:04:08;;;;;;;4.57;3.30;;;;;;;28.08;44.07;100267.88;5091290;28;20047;-77
2023/07/11 06:06:41;;;;;;;4.50;3.10;;;;;;;28.08;43.91;100261.53;5091227;28;20098;-78
2023/07/11 06:09:11;;;;;;;3.80;2.70;;;;;;;28.06;43.82;100261.75;5090933;28;20367;-77
2023/07/11 06:11:41;;;;;;;5.25;3.08;;;;;;;28.07;43.98;100262.59;5073218;28;20113;-76
2023/07/11 06:14:10;;;;;;;4.93;3.10;;;;;;;28.07;43.70;100271.66;5091035;28;20507;-77
2023/07/11 06:16:40;;;;;;;4.75;2.97;;;;;;;28.06;43.78;100263.66;5091349;28;20044;-76
2023/07/11 06:19:09;;;;;;;4.75;2.85;;;;;;;28.06;43.82;100267.25;5091194;28;20120;-78
2023/07/11 06:21:37;;;;;;;4.38;2.92;;;;;;;28.06;43.92;100267.25;5091152;28;20416;-78
2023/07/11 06:24:05;;;;;;;4.05;3.00;;;;;;;28.06;44.29;100263.66;5090851;28;20040;-79
2023/07/11 06:26:34;;;;;;;4.10;2.88;;;;;;;28.07;43.85;100259.84;5090798;28;20539;-77
2023/07/11 06:29:03;;;;;;;4.50;3.20;;;;;;;28.07;44.32;100262.59;5090881;28;20513;-77
2023/07/11 06:31:31;;;;;;;4.90;3.25;;;;;;;28.06;43.92;100266.41;5091139;28;20139;-77
2023/07/11 06:33:59;;;;;;;4.10;3.10;;;;;;;28.06;43.94;100269.13;5091848;28;20405;-77
2023/07/11 06:36:28;;;;;;;4.47;3.13;;;;;;;28.07;44.13;100270.81;5094958;28;20044;-77
2023/07/11 06:38:56;;;;;;;4.72;3.33;;;;;;;28.07;44.10;100266.19;5095000;28;20603;-75
2023/07/11 06:41:24;;;;;;;4.95;3.13;;;;;;;28.08;44.25;100267.03;5095460;28;20050;-76
2023/07/11 06:43:54;;;;;;;5.63;3.17;;;;;;;28.07;44.05;100270.81;5094873;28;20105;-76
2023/07/11 06:46:23;;;;;;;4.85;3.10;;;;;;;28.08;43.87;100261.53;5094809;28;20051;-77
2023/07/11 06:48:52;;;;;;;4.38;2.92;;;;;;;28.09;44.00;100268.75;5094277;28;20490;-77
2023/07/11 06:51:20;;;;;;;4.90;3.28;;;;;;;28.09;44.22;100276.97;5094416;28;20131;-77
2023/07/11 06:53:49;;;;;;;5.78;3.30;;;;;;;28.08;44.25;100273.34;5094657;28;20109;-76
2023/07/11 06:56:17;;;;;;;4.45;3.25;;;;;;;28.09;44.36;100268.75;5094249;28;20465;-77
2023/07/11 06:58:45;;;;;;;4.55;3.25;;;;;;;28.08;44.06;100267.03;5094450;28;20047;-77
2023/07/11 07:01:13;;;;;;;3.97;2.88;;;;;;;28.09;44.63;100271.50;5094402;28;20443;-78
2023/07/11 07:04:03;;;;;;;4.93;3.03;;;;;;;28.08;44.35;100272.50;5094179;28;20063;-77
2023/07/11 07:06:35;;;;;;;4.80;3.08;;;;;;;28.08;44.06;100272.50;5094555;28;20044;-78
2023/07/11 07:09:04;;;;;;;5.18;3.10;;;;;;;28.09;44.29;100268.75;5094234;28;20067;-78
2023/07/11 07:11:32;;;;;;;4.93;3.20;;;;;;;28.09;44.75;100274.22;5094112;28;20048;-78
2023/07/11 07:14:00;;;;;;;4.97;3.40;;;;;;;28.08;44.58;100283.47;5094187;28;20044;-78
2023/07/11 07:16:33;;;;;;;;;;;;;;;28.10;44.61;100276.75;5094808;28;20048;-78
2023/07/11 07:19:03;;;;;;;4.53;2.97;;;;;;;28.10;44.44;100276.75;5094048;28;20365;-78
2023/07/11 07:21:32;;;;;;;5.30;3.50;;;;;;;28.10;44.19;100279.50;5094181;28;20040;-78
2023/07/11 07:24:00;;;;;;;4.70;3.25;;;;;;;28.12;44.21;100279.28;5093958;28;20055;-78
2023/07/11 07:26:28;;;;;;;4.28;2.92;;;;;;;28.11;44.24;100283.09;5094155;28;20249;-78
2023/07/11 07:28:57;;;;;;;5.20;3.33;;;;;;;28.12;44.73;100279.28;5093755;28;20071;-77
2023/07/11 07:31:25;;;;;;;5.47;3.35;;;;;;;28.14;44.92;100279.94;5094090;28;20093;-78
2023/07/11 07:33:53;;;;;;;5.43;3.33;;;;;;;28.14;45.06;100279.94;5093555;28;20047;-78
2023/07/11 07:36:23;;;;;;;4.47;3.17;;;;;;;28.15;44.96;100284.34;5093864;28;20397;-78
2023/07/11 07:38:51;;;;;;;4.97;3.15;;;;;;;28.15;44.79;100284.34;5093898;28;20051;-77
2023/07/11 07:41:21;;;;;;;5.80;3.22;;;;;;;28.17;45.02;100282.25;5093560;28;20105;-77
2023/07/11 07:43:49;;;;;;;4.75;3.70;;;;;;;28.17;44.49;100276.75;5093353;28;20075;-77
2023/07/11 07:46:19;;;;;;;4.47;3.30;;;;;;;28.18;44.95;100283.94;5093289;28;20097;-78
2023/07/11 07:48:47;;;;;;;4.50;3.00;;;;;;;28.18;44.54;100270.22;5093654;28;20082;-78
2023/07/11 07:51:17;;;;;;;4.47;3.22;;;;;;;28.18;44.43;100278.44;5093464;28;20382;-78
2023/07/11 07:53:47;;;;;;;6.22;3.30;;;;;;;28.18;44.91;100270.22;5093599;28;20052;-77
2023/07/11 07:56:17;;;;;;;5.10;3.40;;;;;;;28.20;44.54;100276.38;5093258;28;20044;-77
2023/07/11 07:58:46;;;;;;;5.07;3.53;;;;;;;28.19;44.87;100270.03;5093286;28;20409;-78
2023/07/11 08:01:17;;;;;;;5.30;3.30;;;;;;;28.21;44.65;100269.84;5092988;28;20493;-78
2023/07/11 08:03:45;;;;;;;4.75;3.30;;;;;;;28.20;44.96;100269.00;5093030;28;20048;-77
2023/07/11 08:06:16;;;;;;;5.72;3.53;;;;;;;28.21;45.13;100273.41;5093078;28;20093;-78
2023/07/11 08:08:45;;;;;;;4.85;3.25;;;;;;;28.23;44.68;100275.94;5092901;28;20135;-76
2023/07/11 08:11:16;;;;;;;5.13;3.30;;;;;;;28.22;44.56;100275.09;5093114;28;20040;-77
2023/07/11 08:13:45;;;;;;;6.00;3.60;;;;;;;28.24;45.13;100277.63;5093166;28;20109;-76
2023/07/11 08:16:18;;;;;;;5.10;3.72;;;;;;;28.23;44.90;100273.22;5093238;28;20052;-78
2023/07/11 08:18:59;;;;;;;4.15;3.08;;;;;;;28.26;44.96;100275.53;5092985;28;20135;-78
2023/07/11 08:21:27;;;;;;;5.70;3.50;;;;;;;28.26;45.06;100274.69;5092610;28;20059;-78
2023/07/11 08:23:55;;;;;;;5.03;3.55;;;;;;;28.26;44.57;100281.00;5093154;28;20381;-78
2023/07/11 08:26:25;;;;;;;5.40;3.70;;;;;;;28.27;44.96;100282.69;5092830;28;20136;-77
2023/07/11 08:28:54;;;;;;;5.78;3.60;;;;;;;28.29;44.78;100286.13;5093178;28;20051;-77
2023/07/11 08:31:23;;;;;;;5.72;3.72;;;;;;;28.28;44.60;100283.53;5092689;28;20054;-78
2023/07/11 08:33:51;;;;;;;6.40;3.67;;;;;;;28.27;45.03;100282.69;5092513;28;20056;-77
2023/07/11 08:36:20;;;;;;;6.25;3.78;;;;;;;28.28;45.02;100284.44;5092672;28;20394;-78
2023/07/11 08:38:48;;;;;;;5.53;3.60;;;;;;;28.30;44.99;100289.72;5092520;28;20506;-77
2023/07/11 08:41:28;;;;;;;5.82;3.60;;;;;;;28.31;44.45;100284.03;5092428;28;20048;-79
2023/07/11 08:44:05;;;;;;;5.15;3.42;;;;;;;28.32;44.88;100290.34;5092334;28;20048;-78
2023/07/11 08:46:40;;;;;;;5.30;3.55;;;;;;;28.33;44.42;100287.41;5092250;28;20043;-76
2023/07/11 08:49:17;;;;;;;5.95;3.60;;;;;;;28.35;44.46;100285.28;5092481;28;20048;-78
2023/07/11 08:51:50;;;;;;;5.82;3.60;;;;;;;28.34;44.71;100286.34;5092328;28;20044;-77
2023/07/11 08:54:24;;;;;;;6.28;3.60;;;;;;;28.36;44.93;100281.50;5092017;28;20532;-77
2023/07/11 08:56:56;;;;;;;7.53;3.75;;;;;;;28.38;44.41;100289.53;5091466;28;20071;-77
2023/07/11 08:59:42;;;;;;;5.22;3.63;;;;;;;28.38;44.39;100301.34;5092298;28;20048;-77
2023/07/11 09:02:28;;;;;;;5.85;3.38;;;;;;;28.40;44.79;100292.91;5092239;28;20071;-77
2023/07/11 09:04:58;;;;;;;5.35;3.83;;;;;;;28.40;44.38;100287.44;5091967;28;20109;-78
2023/07/11 09:07:39;;;;;;;5.70;3.83;;;;;;;28.41;44.44;100291.84;5092094;28;20076;-75
2023/07/11 09:10:35;;;;;;;4.72;3.50;;;;;;;28.41;44.44;100294.59;5091923;28;20489;-77
2023/07/11 09:13:29;;;;;;;5.30;3.63;;;;;;;28.42;44.49;100294.38;5091805;28;20052;-77
2023/07/11 09:16:06;;;;;;;4.73;3.33;;;;;;;28.44;44.25;100295.03;5091538;28;20142;-78
2023/07/11 09:18:45;;;;;;;4.85;3.70;;;;;;;28.46;44.25;100298.41;5091826;28;20084;-78
2023/07/11 09:21:18;;;;;;;5.90;4.00;;;;;;;28.46;44.44;100303.03;5091781;28;20069;-77
2023/07/11 09:23:54;;;;;;;4.85;3.60;;;;;;;28.46;44.73;100298.41;5091686;28;20105;-78
2023/07/11 09:26:30;;;;;;;5.30;3.97;;;;;;;28.46;44.34;100292.91;5091829;28;20041;-78
2023/07/11 09:29:04;;;;;;;6.28;3.78;;;;;;;28.46;44.38;100292.91;5091561;28;20101;-78
2023/07/11 09:31:39;;;;;;;5.35;3.90;;;;;;;28.49;44.24;100288.94;5091884;28;20200;-76
2023/07/11 09:34:19;;;;;;;6.47;4.20;;;;;;;28.49;44.67;100292.50;5091742;28;20062;-75
2023/07/11 09:36:49;;;;;;;5.25;4.10;;;;;;;28.50;44.39;100291.47;5091381;28;20040;-78
2023/07/11 09:39:27;;;;;;;5.10;3.70;;;;;;;28.51;44.16;100290.41;5091717;28;20055;-77
2023/07/11 09:42:01;;;;;;;5.05;3.88;;;;;;;28.52;44.33;100292.09;5091465;28;20123;-77
2023/07/11 09:44:31;;;;;;;5.45;3.85;;;;;;;28.52;44.34;100286.59;5092059;28;20440;-77
2023/07/11 09:47:12;;;;;;;5.15;3.78;;;;;;;28.54;44.54;100285.53;5091414;28;20044;-78
2023/07/11 09:49:41;;;;;;;5.20;3.80;;;;;;;28.54;44.06;100282.81;5091596;28;20048;-78
2023/07/11 09:52:14;;;;;;;5.03;3.85;;;;;;;28.55;44.49;100279.00;5091598;28;20120;-78
2023/07/11 09:54:47;;;;;;;5.95;4.03;;;;;;;28.56;44.11;100280.69;5091485;28;20055;-78
2023/07/11 09:57:18;;;;;;;5.57;3.78;;;;;;;28.57;44.29;100283.25;5091860;28;20051;-76
2023/07/11 09:59:54;;;;;;;7.43;4.10;;;;;;;28.59;44.34;100269.31;5091245;28;20082;-77
2023/07/11 10:02:30;;;;;;;5.20;3.85;;;;;;;28.60;44.40;100271.84;5091721;28;20530;-77
2023/07/11 10:04:58;;;;;;;5.72;3.95;;;;;;;28.61;44.46;100278.19;5091353;28;20115;-77
2023/07/11 10:07:30;;;;;;;5.72;4.32;;;;;;;28.62;44.33;100275.22;5091317;28;20055;-78
2023/07/11 10:10:02;;;;;;;5.55;4.22;;;;;;;28.63;44.50;100265.09;5093461;28;20501;-78
2023/07/11 10:12:31;;;;;;;5.50;3.97;;;;;;;28.66;44.46;100275.63;5095808;28;20052;-78
2023/07/11 10:15:04;;;;;;;6.00;4.07;;;;;;;28.66;44.05;100282.00;5095408;28;20052;-76
2023/07/11 10:17:34;;;;;;;5.22;3.95;;;;;;;28.67;44.34;100285.59;5095407;28;20117;-78
2023/07/11 10:20:06;;;;;;;7.28;4.10;;;;;;;28.68;43.98;100279.03;5095263;28;20044;-77
2023/07/11 10:22:49;;;;;;;5.50;4.00;;;;;;;28.70;44.17;100290.63;5095067;28;20051;-78
2023/07/11 10:25:20;;;;;;;5.68;3.88;;;;;;;28.71;44.43;100278.59;5095072;28;20489;-76
2023/07/11 10:27:53;;;;;;;7.35;4.22;;;;;;;28.71;44.41;100286.84;5095028;28;20165;-79
2023/07/11 10:30:29;;;;;;;5.90;3.65;;;;;;;28.73;44.06;100282.81;5095236;28;20046;-78
2023/07/11 10:33:01;;;;;;;5.85;4.13;;;;;;;28.74;44.40;100278.19;5094921;28;20127;-79
2023/07/11 10:35:52;;;;;;;5.35;4.00;;;;;;;28.77;44.54;100275.03;5094847;28;20482;-78
2023/07/11 10:38:24;;;;;;;5.43;3.72;;;;;;;28.80;44.45;100280.94;5095005;28;20511;-78
2023/07/11 10:40:58;;;;;;;5.30;4.28;;;;;;;28.80;44.22;100267.22;5094817;28;20424;-77
2023/07/11 10:43:29;;;;;;;5.88;4.00;;;;;;;28.82;44.38;100267.00;5094687;28;20059;-77
2023/07/11 10:46:04;;;;;;;5.80;4.25;;;;;;;28.85;44.14;100268.47;5094849;28;20052;-77
2023/07/11 10:48:39;;;;;;;6.30;4.30;;;;;;;28.87;44.15;100275.47;5094934;28;20135;-78
2023/07/11 10:51:12;;;;;;;6.45;4.30;;;;;;;28.89;44.00;100281.59;5094747;28;20043;-78
2023/07/11 10:53:44;;;;;;;5.85;4.03;;;;;;;28.90;44.06;100266.81;5094502;28;20474;-78
2023/07/11 10:56:19;;;;;;;6.35;4.25;;;;;;;28.94;44.30;100273.56;5094705;28;20101;-77
2023/07/11 10:58:50;;;;;;;5.95;4.30;;;;;;;28.98;44.34;100268.53;5094681;28;20071;-77
2023/07/11 11:01:35;;;;;;;5.80;4.40;;;;;;;29.01;44.51;100262.59;5094533;28;20052;-78
2023/07/11 11:04:15;;;;;;;6.03;4.55;;;;;;;29.04;44.43;100256.66;5094544;28;20432;-78
2023/07/11 11:06:53;;;;;;;6.40;4.30;;;;;;;29.06;44.49;100258.16;5094465;28;20413;-78
2023/07/11 11:09:26;;;;;;;6.28;4.68;;;;;;;29.07;43.91;100251.63;5094114;28;20056;-77
2023/07/11 11:12:02;;;;;;;5.90;4.25;;;;;;;29.08;44.05;100250.56;5094543;28;20329;-78
2023/07/11 11:14:42;;;;;;;6.32;4.30;;;;;;;29.12;44.25;100241.88;5094207;28;20048;-79
2023/07/11 11:17:26;;;;;;;7.82;4.30;;;;;;;29.15;44.06;100247.81;5094590;28;20055;-78
2023/07/11 11:20:07;;;;;;;5.68;4.30;;;;;;;29.18;44.26;100250.13;5093814;28;20093;-78
2023/07/11 11:22:46;;;;;;;6.85;4.35;;;;;;;29.22;43.95;100243.13;5093949;28;20416;-78
2023/07/11 11:25:23;;;;;;;7.68;4.70;;;;;;;29.24;44.04;100241.03;5093875;28;20048;-78
2023/07/11 11:28:13;;;;;;;6.05;4.30;;;;;;;29.28;43.69;100230.44;5093984;28;20416;-77
2023/07/11 11:30:51;;;;;;;6.05;4.38;;;;;;;29.32;43.61;100239.94;5093857;28;20051;-77
2023/07/11 11:33:39;;;;;;;6.22;4.40;;;;;;;29.34;43.67;100240.59;5093825;28;20082;-78
2023/07/11 11:36:19;;;;;;;7.25;4.57;;;;;;;29.38;43.55;100230.84;5093817;28;20101;-77
2023/07/11 11:38:59;;;;;;;7.45;4.88;;;;;;;29.42;43.23;100231.25;5093783;28;20058;-78
2023/07/11 11:41:35;;;;;;;6.10;4.50;;;;;;;29.42;43.29;100223.84;5094176;28;20133;-77
2023/07/11 11:44:12;;;;;;;7.03;4.82;;;;;;;29.47;43.09;100235.06;5093590;28;20098;-78